sensor_id;sensor_type;location;lat;lon;timestamp;P1;durP1;ratioP1;P2;durP2;ratioP2
36797;SDS011;22748;8.426;99.512;2022-10-16T00:01:22;12.30;;;8.60;;
36797;SDS011;22748;8.426;99.512;2022-10-16T00:03:56;9.77;;;7.47;;
36797;SDS011;22748;8.426;99.512;2022-10-16T00:06:29;12.23;;;9.07;;
36797;SDS011;22748;8.426;99.512;2022-10-16T00:09:00;15.50;;;9.52;;
36797;SDS011;22748;8.426;99.512;2022-10-16T00:11:30;19.65;;;15.75;;
36797;SDS011;22748;8.426;99.512;2022-10-16T00:14:04;27.27;;;23.38;;
36797;SDS011;22748;8.426;99.512;2022-10-16T00:16:37;29.85;;;26.77;;
36797;SDS011;22748;8.426;99.512;2022-10-16T00:19:09;31.45;;;24.85;;
36797;SDS011;22748;8.426;99.512;2022-10-16T00:21:41;17.33;;;11.40;;
36797;SDS011;22748;8.426;99.512;2022-10-16T00:24:11;82.07;;;54.35;;
36797;SDS011;22748;8.426;99.512;2022-10-16T00:26:42;21.25;;;17.15;;
36797;SDS011;22748;8.426;99.512;2022-10-16T00:29:12;33.40;;;21.23;;
36797;SDS011;22748;8.426;99.512;2022-10-16T00:31:44;29.10;;;21.05;;
36797;SDS011;22748;8.426;99.512;2022-10-16T00:34:18;13.05;;;11.07;;
36797;SDS011;22748;8.426;99.512;2022-10-16T00:36:49;19.67;;;11.73;;
36797;SDS011;22748;8.426;99.512;2022-10-16T00:39:19;29.63;;;19.60;;
36797;SDS011;22748;8.426;99.512;2022-10-16T00:41:49;20.23;;;14.73;;
36797;SDS011;22748;8.426;99.512;2022-10-16T00:47:17;21.15;;;7.45;;
36797;SDS011;22748;8.426;99.512;2022-10-16T00:49:56;16.52;;;7.30;;
36797;SDS011;22748;8.426;99.512;2022-10-16T00:52:32;25.63;;;22.05;;
36797;SDS011;22748;8.426;99.512;2022-10-16T00:55:02;16.27;;;11.68;;
36797;SDS011;22748;8.426;99.512;2022-10-16T00:57:35;12.43;;;7.90;;
36797;SDS011;22748;8.426;99.512;2022-10-16T01:00:08;8.13;;;6.55;;
36797;SDS011;22748;8.426;99.512;2022-10-16T01:02:42;8.77;;;7.88;;
36797;SDS011;22748;8.426;99.512;2022-10-16T01:05:15;7.00;;;5.53;;
36797;SDS011;22748;8.426;99.512;2022-10-16T01:07:45;10.48;;;4.63;;
36797;SDS011;22748;8.426;99.512;2022-10-16T01:13:00;7.03;;;5.40;;
36797;SDS011;22748;8.426;99.512;2022-10-16T01:15:34;6.32;;;4.95;;
36797;SDS011;22748;8.426;99.512;2022-10-16T01:18:08;10.60;;;5.47;;
36797;SDS011;22748;8.426;99.512;2022-10-16T01:20:47;5.43;;;4.50;;
36797;SDS011;22748;8.426;99.512;2022-10-16T01:23:27;6.57;;;4.90;;
36797;SDS011;22748;8.426;99.512;2022-10-16T01:26:10;8.95;;;5.10;;
36797;SDS011;22748;8.426;99.512;2022-10-16T01:28:51;9.18;;;5.40;;
36797;SDS011;22748;8.426;99.512;2022-10-16T01:31:28;15.88;;;14.20;;
36797;SDS011;22748;8.426;99.512;2022-10-16T01:34:02;9.00;;;7.20;;
36797;SDS011;22748;8.426;99.512;2022-10-16T01:36:37;8.23;;;4.70;;
36797;SDS011;22748;8.426;99.512;2022-10-16T01:39:11;9.82;;;4.60;;
36797;SDS011;22748;8.426;99.512;2022-10-16T01:41:45;6.90;;;4.03;;
36797;SDS011;22748;8.426;99.512;2022-10-16T01:44:24;10.18;;;4.60;;
36797;SDS011;22748;8.426;99.512;2022-10-16T01:46:59;7.47;;;4.00;;
36797;SDS011;22748;8.426;99.512;2022-10-16T01:49:31;4.10;;;3.80;;
36797;SDS011;22748;8.426;99.512;2022-10-16T01:52:05;12.85;;;4.45;;
36797;SDS011;22748;8.426;99.512;2022-10-16T01:54:37;8.23;;;4.38;;
36797;SDS011;22748;8.426;99.512;2022-10-16T01:57:10;4.53;;;3.53;;
36797;SDS011;22748;8.426;99.512;2022-10-16T01:59:46;17.13;;;4.70;;
36797;SDS011;22748;8.426;99.512;2022-10-16T02:02:17;9.30;;;4.57;;
36797;SDS011;22748;8.426;99.512;2022-10-16T02:04:51;8.48;;;4.05;;
36797;SDS011;22748;8.426;99.512;2022-10-16T02:07:28;6.05;;;3.85;;
36797;SDS011;22748;8.426;99.512;2022-10-16T02:10:00;6.03;;;2.72;;
36797;SDS011;22748;8.426;99.512;2022-10-16T02:12:31;5.15;;;3.30;;
36797;SDS011;22748;8.426;99.512;2022-10-16T02:15:08;4.45;;;3.25;;
36797;SDS011;22748;8.426;99.512;2022-10-16T02:17:39;9.35;;;3.08;;
36797;SDS011;22748;8.426;99.512;2022-10-16T02:20:09;7.82;;;3.03;;
36797;SDS011;22748;8.426;99.512;2022-10-16T02:22:40;7.50;;;3.45;;
36797;SDS011;22748;8.426;99.512;2022-10-16T02:25:15;6.63;;;3.63;;
36797;SDS011;22748;8.426;99.512;2022-10-16T02:27:50;9.85;;;4.60;;
36797;SDS011;22748;8.426;99.512;2022-10-16T02:30:29;6.70;;;3.80;;
36797;SDS011;22748;8.426;99.512;2022-10-16T02:33:05;7.97;;;3.90;;
36797;SDS011;22748;8.426;99.512;2022-10-16T02:35:40;20.20;;;7.75;;
36797;SDS011;22748;8.426;99.512;2022-10-16T02:38:12;15.20;;;5.43;;
36797;SDS011;22748;8.426;99.512;2022-10-16T02:40:44;14.73;;;7.45;;
36797;SDS011;22748;8.426;99.512;2022-10-16T02:43:15;18.08;;;6.25;;
36797;SDS011;22748;8.426;99.512;2022-10-16T02:48:17;5.55;;;3.53;;
36797;SDS011;22748;8.426;99.512;2022-10-16T02:50:48;4.97;;;4.00;;
36797;SDS011;22748;8.426;99.512;2022-10-16T02:53:19;7.03;;;4.10;;
36797;SDS011;22748;8.426;99.512;2022-10-16T02:55:49;6.70;;;4.22;;
36797;SDS011;22748;8.426;99.512;2022-10-16T02:58:19;5.10;;;4.60;;
36797;SDS011;22748;8.426;99.512;2022-10-16T03:00:51;6.32;;;4.55;;
36797;SDS011;22748;8.426;99.512;2022-10-16T03:03:20;5.43;;;3.72;;
36797;SDS011;22748;8.426;99.512;2022-10-16T03:05:51;12.52;;;4.97;;
36797;SDS011;22748;8.426;99.512;2022-10-16T03:08:21;5.50;;;3.70;;
36797;SDS011;22748;8.426;99.512;2022-10-16T03:10:52;7.50;;;4.00;;
36797;SDS011;22748;8.426;99.512;2022-10-16T03:13:22;6.72;;;4.20;;
36797;SDS011;22748;8.426;99.512;2022-10-16T03:15:55;10.70;;;5.10;;
36797;SDS011;22748;8.426;99.512;2022-10-16T03:18:26;14.38;;;6.53;;
36797;SDS011;22748;8.426;99.512;2022-10-16T03:20:57;7.80;;;5.00;;
36797;SDS011;22748;8.426;99.512;2022-10-16T03:23:26;7.97;;;5.05;;
36797;SDS011;22748;8.426;99.512;2022-10-16T03:25:56;13.55;;;5.32;;
36797;SDS011;22748;8.426;99.512;2022-10-16T03:28:26;21.58;;;8.45;;
36797;SDS011;22748;8.426;99.512;2022-10-16T03:30:57;14.07;;;6.47;;
36797;SDS011;22748;8.426;99.512;2022-10-16T03:35:57;10.52;;;4.57;;
36797;SDS011;22748;8.426;99.512;2022-10-16T03:38:27;8.65;;;4.25;;
36797;SDS011;22748;8.426;99.512;2022-10-16T03:40:57;11.07;;;5.33;;
36797;SDS011;22748;8.426;99.512;2022-10-16T03:43:28;7.95;;;5.10;;
36797;SDS011;22748;8.426;99.512;2022-10-16T03:45:59;8.23;;;4.72;;
36797;SDS011;22748;8.426;99.512;2022-10-16T03:50:59;10.88;;;5.38;;
36797;SDS011;22748;8.426;99.512;2022-10-16T03:53:30;17.95;;;4.93;;
36797;SDS011;22748;8.426;99.512;2022-10-16T03:56:00;12.70;;;5.28;;
36797;SDS011;22748;8.426;99.512;2022-10-16T03:58:30;5.65;;;4.28;;
36797;SDS011;22748;8.426;99.512;2022-10-16T04:01:01;14.07;;;4.90;;
36797;SDS011;22748;8.426;99.512;2022-10-16T04:03:35;5.82;;;4.50;;
36797;SDS011;22748;8.426;99.512;2022-10-16T04:06:11;12.10;;;6.38;;
36797;SDS011;22748;8.426;99.512;2022-10-16T04:08:42;5.57;;;4.57;;
36797;SDS011;22748;8.426;99.512;2022-10-16T04:11:12;5.07;;;4.35;;
36797;SDS011;22748;8.426;99.512;2022-10-16T04:13:43;5.80;;;4.38;;
36797;SDS011;22748;8.426;99.512;2022-10-16T04:16:21;7.22;;;4.95;;
36797;SDS011;22748;8.426;99.512;2022-10-16T04:18:52;6.45;;;4.38;;
36797;SDS011;22748;8.426;99.512;2022-10-16T04:21:23;9.50;;;4.38;;
36797;SDS011;22748;8.426;99.512;2022-10-16T04:23:54;7.05;;;4.55;;
36797;SDS011;22748;8.426;99.512;2022-10-16T04:26:25;6.90;;;4.95;;
36797;SDS011;22748;8.426;99.512;2022-10-16T04:28:55;5.97;;;4.53;;
36797;SDS011;22748;8.426;99.512;2022-10-16T04:31:27;4.93;;;4.38;;
36797;SDS011;22748;8.426;99.512;2022-10-16T04:33:57;4.72;;;4.13;;
36797;SDS011;22748;8.426;99.512;2022-10-16T04:36:28;12.63;;;6.18;;
36797;SDS011;22748;8.426;99.512;2022-10-16T04:38:58;5.28;;;4.80;;
36797;SDS011;22748;8.426;99.512;2022-10-16T04:41:29;5.45;;;4.63;;
36797;SDS011;22748;8.426;99.512;2022-10-16T04:44:00;10.02;;;4.68;;
36797;SDS011;22748;8.426;99.512;2022-10-16T04:46:33;8.20;;;4.90;;
36797;SDS011;22748;8.426;99.512;2022-10-16T04:49:03;8.20;;;4.90;;
36797;SDS011;22748;8.426;99.512;2022-10-16T04:51:33;6.40;;;4.78;;
36797;SDS011;22748;8.426;99.512;2022-10-16T04:54:02;7.13;;;5.70;;
36797;SDS011;22748;8.426;99.512;2022-10-16T04:56:31;6.78;;;6.00;;
36797;SDS011;22748;8.426;99.512;2022-10-16T04:59:08;4.95;;;4.45;;
36797;SDS011;22748;8.426;99.512;2022-10-16T05:06:40;8.52;;;5.10;;
36797;SDS011;22748;8.426;99.512;2022-10-16T05:09:11;5.97;;;3.95;;
36797;SDS011;22748;8.426;99.512;2022-10-16T05:11:42;7.32;;;4.72;;
36797;SDS011;22748;8.426;99.512;2022-10-16T05:14:13;6.30;;;4.28;;
36797;SDS011;22748;8.426;99.512;2022-10-16T05:16:45;4.55;;;4.13;;
36797;SDS011;22748;8.426;99.512;2022-10-16T05:19:16;5.57;;;4.43;;
36797;SDS011;22748;8.426;99.512;2022-10-16T05:21:46;7.05;;;5.00;;
36797;SDS011;22748;8.426;99.512;2022-10-16T05:24:17;6.57;;;4.82;;
36797;SDS011;22748;8.426;99.512;2022-10-16T05:26:46;7.47;;;5.20;;
36797;SDS011;22748;8.426;99.512;2022-10-16T05:29:16;5.93;;;4.93;;
36797;SDS011;22748;8.426;99.512;2022-10-16T05:31:51;7.38;;;4.50;;
36797;SDS011;22748;8.426;99.512;2022-10-16T05:34:22;8.50;;;4.80;;
36797;SDS011;22748;8.426;99.512;2022-10-16T05:36:53;5.68;;;4.32;;
36797;SDS011;22748;8.426;99.512;2022-10-16T05:39:24;6.32;;;4.65;;
36797;SDS011;22748;8.426;99.512;2022-10-16T05:41:54;5.40;;;4.53;;
36797;SDS011;22748;8.426;99.512;2022-10-16T05:44:25;4.05;;;3.67;;
36797;SDS011;22748;8.426;99.512;2022-10-16T05:46:56;5.75;;;3.90;;
36797;SDS011;22748;8.426;99.512;2022-10-16T05:49:25;4.97;;;4.50;;
36797;SDS011;22748;8.426;99.512;2022-10-16T05:51:54;4.85;;;4.45;;
36797;SDS011;22748;8.426;99.512;2022-10-16T05:54:23;6.10;;;4.50;;
36797;SDS011;22748;8.426;99.512;2022-10-16T05:56:52;4.75;;;4.03;;
36797;SDS011;22748;8.426;99.512;2022-10-16T05:59:21;4.60;;;4.20;;
36797;SDS011;22748;8.426;99.512;2022-10-16T06:01:51;7.97;;;7.18;;
36797;SDS011;22748;8.426;99.512;2022-10-16T06:04:24;6.68;;;5.50;;
36797;SDS011;22748;8.426;99.512;2022-10-16T06:06:53;7.70;;;5.10;;
36797;SDS011;22748;8.426;99.512;2022-10-16T06:09:26;6.50;;;5.05;;
36797;SDS011;22748;8.426;99.512;2022-10-16T06:11:55;5.32;;;4.82;;
36797;SDS011;22748;8.426;99.512;2022-10-16T06:14:25;4.55;;;4.25;;
36797;SDS011;22748;8.426;99.512;2022-10-16T06:16:54;5.00;;;4.50;;
36797;SDS011;22748;8.426;99.512;2022-10-16T06:19:26;5.18;;;4.63;;
36797;SDS011;22748;8.426;99.512;2022-10-16T06:21:57;5.05;;;4.65;;
36797;SDS011;22748;8.426;99.512;2022-10-16T06:26:58;6.72;;;5.10;;
36797;SDS011;22748;8.426;99.512;2022-10-16T06:29:32;8.20;;;4.68;;
36797;SDS011;22748;8.426;99.512;2022-10-16T06:32:02;5.50;;;4.43;;
36797;SDS011;22748;8.426;99.512;2022-10-16T06:34:35;5.25;;;3.90;;
36797;SDS011;22748;8.426;99.512;2022-10-16T06:37:06;5.68;;;4.35;;
36797;SDS011;22748;8.426;99.512;2022-10-16T06:39:36;6.07;;;3.70;;
36797;SDS011;22748;8.426;99.512;2022-10-16T06:42:06;5.20;;;3.38;;
36797;SDS011;22748;8.426;99.512;2022-10-16T06:44:36;4.03;;;3.67;;
36797;SDS011;22748;8.426;99.512;2022-10-16T06:47:06;4.10;;;3.70;;
36797;SDS011;22748;8.426;99.512;2022-10-16T06:49:38;5.10;;;4.40;;
36797;SDS011;22748;8.426;99.512;2022-10-16T06:52:08;7.35;;;4.05;;
36797;SDS011;22748;8.426;99.512;2022-10-16T06:54:38;7.60;;;2.50;;
36797;SDS011;22748;8.426;99.512;2022-10-16T06:57:08;5.75;;;2.05;;
36797;SDS011;22748;8.426;99.512;2022-10-16T06:59:38;3.80;;;1.60;;
36797;SDS011;22748;8.426;99.512;2022-10-16T07:02:08;4.07;;;1.60;;
36797;SDS011;22748;8.426;99.512;2022-10-16T07:04:41;5.00;;;3.45;;
36797;SDS011;22748;8.426;99.512;2022-10-16T07:07:11;2.22;;;1.50;;
36797;SDS011;22748;8.426;99.512;2022-10-16T07:09:41;3.97;;;1.77;;
36797;SDS011;22748;8.426;99.512;2022-10-16T07:12:12;2.60;;;1.60;;
36797;SDS011;22748;8.426;99.512;2022-10-16T07:14:42;5.93;;;1.45;;
36797;SDS011;22748;8.426;99.512;2022-10-16T07:17:13;2.75;;;1.40;;
36797;SDS011;22748;8.426;99.512;2022-10-16T07:19:44;2.90;;;1.50;;
36797;SDS011;22748;8.426;99.512;2022-10-16T07:24:45;3.15;;;1.98;;
36797;SDS011;22748;8.426;99.512;2022-10-16T07:27:15;3.92;;;1.80;;
36797;SDS011;22748;8.426;99.512;2022-10-16T07:29:46;3.63;;;1.70;;
36797;SDS011;22748;8.426;99.512;2022-10-16T07:32:18;4.22;;;1.75;;
36797;SDS011;22748;8.426;99.512;2022-10-16T07:34:51;8.02;;;1.48;;
36797;SDS011;22748;8.426;99.512;2022-10-16T07:37:22;4.20;;;1.55;;
36797;SDS011;22748;8.426;99.512;2022-10-16T07:39:53;2.22;;;1.40;;
36797;SDS011;22748;8.426;99.512;2022-10-16T07:42:22;2.33;;;1.50;;
36797;SDS011;22748;8.426;99.512;2022-10-16T07:44:54;2.38;;;1.38;;
36797;SDS011;22748;8.426;99.512;2022-10-16T07:47:24;2.92;;;1.55;;
36797;SDS011;22748;8.426;99.512;2022-10-16T07:49:55;1.92;;;1.50;;
36797;SDS011;22748;8.426;99.512;2022-10-16T07:52:27;4.28;;;1.60;;
36797;SDS011;22748;8.426;99.512;2022-10-16T07:54:57;4.82;;;1.63;;
36797;SDS011;22748;8.426;99.512;2022-10-16T07:57:27;4.35;;;1.55;;
36797;SDS011;22748;8.426;99.512;2022-10-16T08:00:00;2.92;;;1.20;;
36797;SDS011;22748;8.426;99.512;2022-10-16T08:02:29;5.88;;;1.42;;
36797;SDS011;22748;8.426;99.512;2022-10-16T08:05:01;3.35;;;1.42;;
36797;SDS011;22748;8.426;99.512;2022-10-16T08:07:31;2.67;;;1.50;;
36797;SDS011;22748;8.426;99.512;2022-10-16T08:10:03;2.47;;;1.42;;
36797;SDS011;22748;8.426;99.512;2022-10-16T08:12:33;3.08;;;1.50;;
36797;SDS011;22748;8.426;99.512;2022-10-16T08:15:04;3.35;;;1.70;;
36797;SDS011;22748;8.426;99.512;2022-10-16T08:20:06;2.38;;;1.67;;
36797;SDS011;22748;8.426;99.512;2022-10-16T08:22:37;1.50;;;1.20;;
36797;SDS011;22748;8.426;99.512;2022-10-16T08:25:07;1.83;;;1.30;;
36797;SDS011;22748;8.426;99.512;2022-10-16T08:27:37;3.28;;;1.58;;
36797;SDS011;22748;8.426;99.512;2022-10-16T08:30:08;2.03;;;1.50;;
36797;SDS011;22748;8.426;99.512;2022-10-16T08:32:39;2.20;;;1.25;;
36797;SDS011;22748;8.426;99.512;2022-10-16T08:35:11;3.67;;;1.40;;
36797;SDS011;22748;8.426;99.512;2022-10-16T08:37:43;2.45;;;1.20;;
36797;SDS011;22748;8.426;99.512;2022-10-16T08:40:16;1.83;;;1.40;;
36797;SDS011;22748;8.426;99.512;2022-10-16T08:42:55;1.95;;;1.58;;
36797;SDS011;22748;8.426;99.512;2022-10-16T08:45:44;2.58;;;1.80;;
36797;SDS011;22748;8.426;99.512;2022-10-16T08:48:26;2.30;;;2.10;;
36797;SDS011;22748;8.426;99.512;2022-10-16T08:51:06;4.05;;;2.28;;
36797;SDS011;22748;8.426;99.512;2022-10-16T08:53:41;4.22;;;3.15;;
36797;SDS011;22748;8.426;99.512;2022-10-16T08:56:15;4.28;;;3.63;;
36797;SDS011;22748;8.426;99.512;2022-10-16T08:58:45;4.97;;;4.57;;
36797;SDS011;22748;8.426;99.512;2022-10-16T09:01:16;6.40;;;5.40;;
36797;SDS011;22748;8.426;99.512;2022-10-16T09:03:53;7.78;;;7.07;;
36797;SDS011;22748;8.426;99.512;2022-10-16T09:06:47;7.75;;;7.05;;
36797;SDS011;22748;8.426;99.512;2022-10-16T09:09:30;10.93;;;10.02;;
36797;SDS011;22748;8.426;99.512;2022-10-16T09:12:09;6.95;;;6.45;;
36797;SDS011;22748;8.426;99.512;2022-10-16T09:17:39;5.68;;;4.93;;
36797;SDS011;22748;8.426;99.512;2022-10-16T09:20:29;5.07;;;4.05;;
36797;SDS011;22748;8.426;99.512;2022-10-16T09:23:12;5.68;;;3.85;;
36797;SDS011;22748;8.426;99.512;2022-10-16T09:25:45;4.47;;;3.78;;
36797;SDS011;22748;8.426;99.512;2022-10-16T09:28:16;9.23;;;6.97;;
36797;SDS011;22748;8.426;99.512;2022-10-16T09:30:47;6.30;;;5.70;;
36797;SDS011;22748;8.426;99.512;2022-10-16T09:33:18;5.72;;;4.93;;
36797;SDS011;22748;8.426;99.512;2022-10-16T09:35:52;4.30;;;3.72;;
36797;SDS011;22748;8.426;99.512;2022-10-16T09:38:27;6.10;;;5.10;;
36797;SDS011;22748;8.426;99.512;2022-10-16T09:40:59;3.25;;;2.92;;
36797;SDS011;22748;8.426;99.512;2022-10-16T09:43:32;2.92;;;2.38;;
36797;SDS011;22748;8.426;99.512;2022-10-16T09:46:21;5.25;;;2.80;;
36797;SDS011;22748;8.426;99.512;2022-10-16T09:48:56;3.17;;;2.17;;
36797;SDS011;22748;8.426;99.512;2022-10-16T09:51:29;4.82;;;3.05;;
36797;SDS011;22748;8.426;99.512;2022-10-16T09:54:13;5.70;;;2.42;;
36797;SDS011;22748;8.426;99.512;2022-10-16T09:56:44;2.35;;;1.90;;
36797;SDS011;22748;8.426;99.512;2022-10-16T09:59:18;2.83;;;2.10;;
36797;SDS011;22748;8.426;99.512;2022-10-16T10:01:51;2.58;;;2.38;;
36797;SDS011;22748;8.426;99.512;2022-10-16T10:04:22;3.03;;;2.20;;
36797;SDS011;22748;8.426;99.512;2022-10-16T10:06:55;2.88;;;2.60;;
36797;SDS011;22748;8.426;99.512;2022-10-16T10:09:30;3.13;;;2.60;;
36797;SDS011;22748;8.426;99.512;2022-10-16T10:12:05;2.22;;;2.03;;
36797;SDS011;22748;8.426;99.512;2022-10-16T10:14:46;2.83;;;2.30;;
36797;SDS011;22748;8.426;99.512;2022-10-16T10:17:17;2.50;;;2.30;;
36797;SDS011;22748;8.426;99.512;2022-10-16T10:19:49;3.20;;;1.92;;
36797;SDS011;22748;8.426;99.512;2022-10-16T10:22:24;2.35;;;1.67;;
36797;SDS011;22748;8.426;99.512;2022-10-16T10:28:20;2.17;;;1.80;;
36797;SDS011;22748;8.426;99.512;2022-10-16T10:31:10;3.15;;;1.70;;
36797;SDS011;22748;8.426;99.512;2022-10-16T10:33:52;3.33;;;1.75;;
36797;SDS011;22748;8.426;99.512;2022-10-16T10:36:33;3.42;;;1.73;;
36797;SDS011;22748;8.426;99.512;2022-10-16T10:39:07;4.65;;;1.70;;
36797;SDS011;22748;8.426;99.512;2022-10-16T10:44:37;3.47;;;1.90;;
36797;SDS011;22748;8.426;99.512;2022-10-16T10:47:29;2.65;;;1.70;;
36797;SDS011;22748;8.426;99.512;2022-10-16T10:50:12;3.10;;;2.10;;
36797;SDS011;22748;8.426;99.512;2022-10-16T10:52:52;5.10;;;2.40;;
36797;SDS011;22748;8.426;99.512;2022-10-16T10:55:37;3.92;;;2.10;;
36797;SDS011;22748;8.426;99.512;2022-10-16T10:58:18;3.45;;;2.40;;
36797;SDS011;22748;8.426;99.512;2022-10-16T11:01:06;3.92;;;2.50;;
36797;SDS011;22748;8.426;99.512;2022-10-16T11:03:43;3.20;;;2.85;;
36797;SDS011;22748;8.426;99.512;2022-10-16T11:06:26;4.88;;;2.88;;
36797;SDS011;22748;8.426;99.512;2022-10-16T11:09:03;5.53;;;2.70;;
36797;SDS011;22748;8.426;99.512;2022-10-16T11:11:43;6.88;;;2.58;;
36797;SDS011;22748;8.426;99.512;2022-10-16T11:14:18;4.88;;;2.60;;
36797;SDS011;22748;8.426;99.512;2022-10-16T11:16:56;3.90;;;2.50;;
36797;SDS011;22748;8.426;99.512;2022-10-16T11:19:34;5.88;;;2.72;;
36797;SDS011;22748;8.426;99.512;2022-10-16T11:22:09;6.57;;;4.20;;
36797;SDS011;22748;8.426;99.512;2022-10-16T11:24:48;4.40;;;3.17;;
36797;SDS011;22748;8.426;99.512;2022-10-16T11:27:23;5.40;;;2.85;;
36797;SDS011;22748;8.426;99.512;2022-10-16T11:30:02;2.90;;;2.47;;
36797;SDS011;22748;8.426;99.512;2022-10-16T11:32:42;5.43;;;3.03;;
36797;SDS011;22748;8.426;99.512;2022-10-16T11:35:24;4.60;;;2.55;;
36797;SDS011;22748;8.426;99.512;2022-10-16T11:38:02;7.00;;;3.33;;
36797;SDS011;22748;8.426;99.512;2022-10-16T11:40:39;7.50;;;3.63;;
36797;SDS011;22748;8.426;99.512;2022-10-16T11:43:13;7.15;;;4.00;;
36797;SDS011;22748;8.426;99.512;2022-10-16T11:45:53;7.45;;;6.40;;
36797;SDS011;22748;8.426;99.512;2022-10-16T11:48:30;33.38;;;21.33;;
36797;SDS011;22748;8.426;99.512;2022-10-16T11:51:06;30.75;;;20.55;;
36797;SDS011;22748;8.426;99.512;2022-10-16T11:53:45;21.77;;;15.73;;
36797;SDS011;22748;8.426;99.512;2022-10-16T11:56:22;15.98;;;11.13;;
36797;SDS011;22748;8.426;99.512;2022-10-16T11:58:55;20.23;;;9.75;;
36797;SDS011;22748;8.426;99.512;2022-10-16T12:01:31;11.35;;;8.40;;
36797;SDS011;22748;8.426;99.512;2022-10-16T12:04:11;10.75;;;8.73;;
36797;SDS011;22748;8.426;99.512;2022-10-16T12:06:50;14.32;;;9.25;;
36797;SDS011;22748;8.426;99.512;2022-10-16T12:09:27;11.88;;;9.02;;
36797;SDS011;22748;8.426;99.512;2022-10-16T12:12:00;9.63;;;8.55;;
36797;SDS011;22748;8.426;99.512;2022-10-16T12:14:35;14.32;;;8.38;;
36797;SDS011;22748;8.426;99.512;2022-10-16T12:20:17;10.15;;;8.30;;
36797;SDS011;22748;8.426;99.512;2022-10-16T12:22:51;11.77;;;7.75;;
36797;SDS011;22748;8.426;99.512;2022-10-16T12:25:25;7.97;;;7.18;;
36797;SDS011;22748;8.426;99.512;2022-10-16T12:27:59;8.25;;;7.40;;
36797;SDS011;22748;8.426;99.512;2022-10-16T12:30:33;6.60;;;5.93;;
36797;SDS011;22748;8.426;99.512;2022-10-16T12:33:06;9.07;;;6.18;;
36797;SDS011;22748;8.426;99.512;2022-10-16T12:35:50;6.13;;;5.43;;
36797;SDS011;22748;8.426;99.512;2022-10-16T12:38:24;5.88;;;5.25;;
36797;SDS011;22748;8.426;99.512;2022-10-16T12:40:58;8.10;;;6.10;;
36797;SDS011;22748;8.426;99.512;2022-10-16T12:43:38;8.63;;;6.22;;
36797;SDS011;22748;8.426;99.512;2022-10-16T12:46:23;9.70;;;7.03;;
36797;SDS011;22748;8.426;99.512;2022-10-16T12:49:17;8.25;;;6.07;;
36797;SDS011;22748;8.426;99.512;2022-10-16T12:52:01;6.32;;;5.57;;
36797;SDS011;22748;8.426;99.512;2022-10-16T12:54:31;9.02;;;7.25;;
36797;SDS011;22748;8.426;99.512;2022-10-16T12:57:21;10.65;;;7.60;;
36797;SDS011;22748;8.426;99.512;2022-10-16T13:00:03;12.82;;;6.97;;
36797;SDS011;22748;8.426;99.512;2022-10-16T13:02:48;10.18;;;6.53;;
36797;SDS011;22748;8.426;99.512;2022-10-16T13:05:38;12.63;;;6.97;;
36797;SDS011;22748;8.426;99.512;2022-10-16T13:08:33;11.98;;;6.70;;
36797;SDS011;22748;8.426;99.512;2022-10-16T13:11:20;7.78;;;5.95;;
36797;SDS011;22748;8.426;99.512;2022-10-16T13:14:03;7.35;;;6.57;;
36797;SDS011;22748;8.426;99.512;2022-10-16T13:17:01;8.70;;;6.68;;
36797;SDS011;22748;8.426;99.512;2022-10-16T13:19:40;9.25;;;6.53;;
36797;SDS011;22748;8.426;99.512;2022-10-16T13:22:17;10.13;;;6.55;;
36797;SDS011;22748;8.426;99.512;2022-10-16T13:25:01;7.45;;;6.32;;
36797;SDS011;22748;8.426;99.512;2022-10-16T13:27:50;10.07;;;6.45;;
36797;SDS011;22748;8.426;99.512;2022-10-16T13:30:24;9.13;;;6.65;;
36797;SDS011;22748;8.426;99.512;2022-10-16T13:32:58;11.35;;;6.78;;
36797;SDS011;22748;8.426;99.512;2022-10-16T13:35:30;14.60;;;10.88;;
36797;SDS011;22748;8.426;99.512;2022-10-16T13:38:09;9.93;;;8.07;;
36797;SDS011;22748;8.426;99.512;2022-10-16T13:40:53;10.93;;;7.78;;
36797;SDS011;22748;8.426;99.512;2022-10-16T13:43:26;8.57;;;7.50;;
36797;SDS011;22748;8.426;99.512;2022-10-16T13:46:02;11.07;;;7.20;;
36797;SDS011;22748;8.426;99.512;2022-10-16T13:48:34;9.70;;;7.50;;
36797;SDS011;22748;8.426;99.512;2022-10-16T13:51:06;10.82;;;6.72;;
36797;SDS011;22748;8.426;99.512;2022-10-16T13:53:41;8.45;;;7.20;;
36797;SDS011;22748;8.426;99.512;2022-10-16T13:56:15;10.13;;;7.22;;
36797;SDS011;22748;8.426;99.512;2022-10-16T13:58:58;10.23;;;7.20;;
36797;SDS011;22748;8.426;99.512;2022-10-16T14:01:28;9.13;;;6.90;;
36797;SDS011;22748;8.426;99.512;2022-10-16T14:04:04;7.57;;;6.72;;
36797;SDS011;22748;8.426;99.512;2022-10-16T14:06:36;10.70;;;7.40;;
36797;SDS011;22748;8.426;99.512;2022-10-16T14:09:13;8.40;;;6.90;;
36797;SDS011;22748;8.426;99.512;2022-10-16T14:11:52;9.30;;;7.47;;
36797;SDS011;22748;8.426;99.512;2022-10-16T14:14:25;9.25;;;7.47;;
36797;SDS011;22748;8.426;99.512;2022-10-16T14:17:00;9.82;;;7.40;;
36797;SDS011;22748;8.426;99.512;2022-10-16T14:19:32;13.50;;;8.25;;
36797;SDS011;22748;8.426;99.512;2022-10-16T14:22:04;8.87;;;7.53;;
36797;SDS011;22748;8.426;99.512;2022-10-16T14:24:59;7.85;;;6.93;;
36797;SDS011;22748;8.426;99.512;2022-10-16T14:27:32;7.68;;;6.38;;
36797;SDS011;22748;8.426;99.512;2022-10-16T14:30:16;6.88;;;5.90;;
36797;SDS011;22748;8.426;99.512;2022-10-16T14:32:56;8.60;;;5.22;;
36797;SDS011;22748;8.426;99.512;2022-10-16T14:35:29;6.00;;;5.45;;
36797;SDS011;22748;8.426;99.512;2022-10-16T14:38:01;5.93;;;4.18;;
36797;SDS011;22748;8.426;99.512;2022-10-16T14:40:33;4.35;;;3.33;;
36797;SDS011;22748;8.426;99.512;2022-10-16T14:43:06;4.20;;;3.20;;
36797;SDS011;22748;8.426;99.512;2022-10-16T14:45:52;5.47;;;3.38;;
36797;SDS011;22748;8.426;99.512;2022-10-16T14:48:25;3.92;;;2.25;;
36797;SDS011;22748;8.426;99.512;2022-10-16T14:50:56;3.20;;;2.20;;
36797;SDS011;22748;8.426;99.512;2022-10-16T14:53:26;3.22;;;1.85;;
36797;SDS011;22748;8.426;99.512;2022-10-16T14:55:57;4.57;;;2.17;;
36797;SDS011;22748;8.426;99.512;2022-10-16T14:58:42;2.85;;;1.83;;
36797;SDS011;22748;8.426;99.512;2022-10-16T15:01:11;3.38;;;2.00;;
36797;SDS011;22748;8.426;99.512;2022-10-16T15:03:40;3.67;;;2.10;;
36797;SDS011;22748;8.426;99.512;2022-10-16T15:06:09;2.72;;;1.90;;
36797;SDS011;22748;8.426;99.512;2022-10-16T15:08:40;5.25;;;2.10;;
36797;SDS011;22748;8.426;99.512;2022-10-16T15:13:43;7.22;;;2.15;;
36797;SDS011;22748;8.426;99.512;2022-10-16T15:16:14;4.22;;;1.88;;
36797;SDS011;22748;8.426;99.512;2022-10-16T15:18:44;3.40;;;1.80;;
36797;SDS011;22748;8.426;99.512;2022-10-16T15:21:18;4.60;;;2.00;;
36797;SDS011;22748;8.426;99.512;2022-10-16T15:23:57;2.92;;;2.00;;
36797;SDS011;22748;8.426;99.512;2022-10-16T15:26:28;3.13;;;1.92;;
36797;SDS011;22748;8.426;99.512;2022-10-16T15:29:03;3.75;;;1.90;;
36797;SDS011;22748;8.426;99.512;2022-10-16T15:31:34;3.03;;;1.90;;
36797;SDS011;22748;8.426;99.512;2022-10-16T15:34:04;3.30;;;1.83;;
36797;SDS011;22748;8.426;99.512;2022-10-16T15:36:36;2.95;;;1.48;;
36797;SDS011;22748;8.426;99.512;2022-10-16T15:39:10;5.22;;;1.95;;
36797;SDS011;22748;8.426;99.512;2022-10-16T15:41:44;1.95;;;1.75;;
36797;SDS011;22748;8.426;99.512;2022-10-16T15:44:19;2.72;;;2.00;;
36797;SDS011;22748;8.426;99.512;2022-10-16T15:46:50;3.60;;;1.88;;
36797;SDS011;22748;8.426;99.512;2022-10-16T15:49:25;3.30;;;1.90;;
36797;SDS011;22748;8.426;99.512;2022-10-16T15:51:55;2.95;;;1.90;;
36797;SDS011;22748;8.426;99.512;2022-10-16T15:54:26;3.67;;;2.15;;
36797;SDS011;22748;8.426;99.512;2022-10-16T15:56:56;5.27;;;1.90;;
36797;SDS011;22748;8.426;99.512;2022-10-16T15:59:27;4.93;;;1.75;;
36797;SDS011;22748;8.426;99.512;2022-10-16T16:01:58;3.22;;;1.90;;
36797;SDS011;22748;8.426;99.512;2022-10-16T16:04:29;2.33;;;1.70;;